createdAt,value
2023-03-28T00:01:15.537Z,8.80
2023-03-28T00:03:46.751Z,7.90
2023-03-28T00:06:19.261Z,7.60
2023-03-28T00:08:58.322Z,7.60
2023-03-28T00:11:34.112Z,8.30
2023-03-28T00:14:03.038Z,7.80
2023-03-28T00:16:39.737Z,8.60
2023-03-28T00:19:11.893Z,8.00
2023-03-28T00:21:41.669Z,9.10
2023-03-28T00:24:15.109Z,7.00
2023-03-28T00:26:44.250Z,7.90
2023-03-28T00:29:21.422Z,6.20
2023-03-28T00:31:52.373Z,7.00
2023-03-28T00:34:20.605Z,6.70
2023-03-28T00:36:50.894Z,6.10
2023-03-28T00:39:19.963Z,7.30
2023-03-28T00:41:49.605Z,5.80
2023-03-28T00:44:49.213Z,6.30
2023-03-28T00:47:42.020Z,5.60
2023-03-28T00:50:14.342Z,5.70
2023-03-28T00:52:44.775Z,5.00
2023-03-28T00:55:17.534Z,6.30
2023-03-28T00:57:55.938Z,6.70
2023-03-28T01:00:24.492Z,6.70
2023-03-28T01:02:56.505Z,7.80
2023-03-28T01:05:32.844Z,8.40
2023-03-28T01:08:13.207Z,9.00
2023-03-28T01:10:42.300Z,7.60
2023-03-28T01:13:18.641Z,9.20
2023-03-28T01:15:54.447Z,7.60
2023-03-28T01:18:24.344Z,9.20
2023-03-28T01:21:02.343Z,9.20
2023-03-28T01:23:50.033Z,9.70
2023-03-28T01:26:51.094Z,11.10
2023-03-28T01:29:24.528Z,11.50
2023-03-28T01:32:00.328Z,11.40
2023-03-28T01:35:21.096Z,11.10
2023-03-28T01:38:01.615Z,9.00
2023-03-28T01:40:48.789Z,8.70
2023-03-28T01:43:32.943Z,7.20
2023-03-28T01:46:07.512Z,6.30
2023-03-28T01:49:08.927Z,6.70
2023-03-28T01:51:47.775Z,5.60
2023-03-28T01:54:30.536Z,5.90
2023-03-28T01:57:26.061Z,5.00
2023-03-28T02:00:15.939Z,5.60
2023-03-28T02:03:06.887Z,4.20
2023-03-28T02:05:39.485Z,3.90
2023-03-28T02:08:11.244Z,3.10
2023-03-28T02:10:49.900Z,3.90
2023-03-28T02:14:00.526Z,3.60
2023-03-28T02:16:54.458Z,3.40
2023-03-28T02:19:40.130Z,3.40
2023-03-28T02:22:25.259Z,4.60
2023-03-28T02:25:09.072Z,3.60
2023-03-28T02:28:05.704Z,4.20
2023-03-28T02:30:53.390Z,4.10
2023-03-28T02:33:53.202Z,5.80
2023-03-28T02:36:24.482Z,10.40
2023-03-28T02:39:15.027Z,11.30
2023-03-28T02:41:49.140Z,11.60
2023-03-28T02:44:23.075Z,9.30
2023-03-28T02:47:34.331Z,6.50
2023-03-28T02:50:19.070Z,3.30
2023-03-28T02:55:38.645Z,3.20
2023-03-28T02:58:29.616Z,2.70
2023-03-28T03:00:57.826Z,2.50
2023-03-28T03:03:27.505Z,2.70
2023-03-28T03:05:58.590Z,2.70
2023-03-28T03:08:28.077Z,3.00
2023-03-28T03:10:57.278Z,2.70
2023-03-28T03:13:26.147Z,3.10
2023-03-28T03:15:54.798Z,2.90
2023-03-28T03:18:26.439Z,2.60
2023-03-28T03:20:55.650Z,3.30
2023-03-28T03:23:27.808Z,3.00
2023-03-28T03:25:58.463Z,3.50
2023-03-28T03:28:38.133Z,2.90
2023-03-28T03:31:07.271Z,3.60
2023-03-28T03:33:47.793Z,2.80
2023-03-28T03:36:19.106Z,2.20
2023-03-28T03:38:48.184Z,2.80
2023-03-28T03:41:21.179Z,4.40
2023-03-28T03:44:29.820Z,2.90
2023-03-28T03:46:57.366Z,3.20
2023-03-28T03:49:26.077Z,2.70
2023-03-28T03:51:53.438Z,3.10
2023-03-28T03:54:21.399Z,3.10
2023-03-28T03:56:49.545Z,2.60
2023-03-28T03:59:16.764Z,3.10
2023-03-28T04:01:55.396Z,3.40
2023-03-28T04:04:47.261Z,3.50
2023-03-28T04:07:25.926Z,3.10
2023-03-28T04:09:54.889Z,2.90
2023-03-28T04:12:25.269Z,3.00
2023-03-28T04:14:55.212Z,3.20
2023-03-28T04:17:37.150Z,3.60
2023-03-28T04:20:11.642Z,3.20
2023-03-28T04:22:48.030Z,2.90
2023-03-28T04:25:17.405Z,3.30
2023-03-28T04:27:53.434Z,3.30
2023-03-28T04:30:21.819Z,3.30
2023-03-28T04:33:08.243Z,2.70
2023-03-28T04:35:39.249Z,2.90
2023-03-28T04:38:07.624Z,2.50
2023-03-28T04:40:39.220Z,3.20
2023-03-28T04:43:19.797Z,2.60
2023-03-28T04:45:53.326Z,3.80
2023-03-28T04:48:22.611Z,2.90
2023-03-28T04:50:49.831Z,2.90
2023-03-28T04:53:16.944Z,3.80
2023-03-28T04:56:05.215Z,3.20
2023-03-28T04:58:36.357Z,3.10
2023-03-28T05:01:05.330Z,3.00
2023-03-28T05:03:58.492Z,2.80
2023-03-28T05:06:26.345Z,4.00
2023-03-28T05:08:54.200Z,3.20
2023-03-28T05:11:24.656Z,3.20
2023-03-28T05:13:52.081Z,3.50
2023-03-28T05:16:32.826Z,3.70
2023-03-28T05:19:20.407Z,3.40
2023-03-28T05:21:55.876Z,3.70
2023-03-28T05:24:23.329Z,3.80
2023-03-28T05:26:51.735Z,3.90
2023-03-28T05:29:23.581Z,4.40
2023-03-28T05:31:53.224Z,4.60
2023-03-28T05:34:25.624Z,4.00
2023-03-28T05:36:52.716Z,3.90
2023-03-28T05:39:28.254Z,3.50
2023-03-28T05:42:04.061Z,3.50
2023-03-28T05:44:35.454Z,3.30
2023-03-28T05:47:25.589Z,3.10
2023-03-28T05:49:54.833Z,4.00
2023-03-28T05:52:22.888Z,3.40
2023-03-28T05:54:52.238Z,3.20
2023-03-28T05:57:21.764Z,3.70
2023-03-28T05:59:49.175Z,3.50
2023-03-28T06:02:24.596Z,3.70
2023-03-28T06:04:58.457Z,3.50
2023-03-28T06:07:39.421Z,3.20
2023-03-28T06:10:11.242Z,3.10
2023-03-28T06:12:39.397Z,3.40
2023-03-28T06:15:07.704Z,2.80
2023-03-28T06:17:43.202Z,4.20
2023-03-28T06:20:10.870Z,3.50
2023-03-28T06:22:39.077Z,3.20
2023-03-28T06:25:13.140Z,3.20
2023-03-28T06:27:41.660Z,3.50
2023-03-28T06:30:10.259Z,4.40
2023-03-28T06:32:44.405Z,3.30
2023-03-28T06:35:14.660Z,4.60
2023-03-28T06:37:46.201Z,3.40
2023-03-28T06:40:17.771Z,3.80
2023-03-28T06:42:45.742Z,3.20
2023-03-28T06:45:22.008Z,3.60
2023-03-28T06:47:55.120Z,4.10
2023-03-28T06:50:29.674Z,3.80
2023-03-28T06:53:10.630Z,3.40
2023-03-28T06:56:01.973Z,3.80
2023-03-28T07:02:33.329Z,3.40
2023-03-28T07:05:11.409Z,3.30
2023-03-28T07:10:58.149Z,3.90
2023-03-28T07:13:36.070Z,3.60
2023-03-28T07:16:07.641Z,4.10
2023-03-28T07:18:35.231Z,3.70
2023-03-28T07:21:09.217Z,3.70
2023-03-28T07:23:44.750Z,4.00
2023-03-28T07:26:16.181Z,3.10
2023-03-28T07:28:44.298Z,3.40
2023-03-28T07:31:12.386Z,2.90
2023-03-28T07:33:41.941Z,3.20
2023-03-28T07:36:16.126Z,3.20
2023-03-28T07:38:48.617Z,4.60
2023-03-28T07:41:17.472Z,3.80
2023-03-28T07:43:44.881Z,3.60
2023-03-28T07:46:13.801Z,3.00
2023-03-28T07:48:41.469Z,3.70
2023-03-28T07:51:11.007Z,3.50
2023-03-28T07:53:40.226Z,3.70
2023-03-28T07:56:14.014Z,3.00
2023-03-28T07:59:03.906Z,3.20
2023-03-28T08:01:32.766Z,3.00
2023-03-28T08:04:04.342Z,2.80
2023-03-28T08:07:04.533Z,3.50
2023-03-28T08:09:31.914Z,3.50
2023-03-28T08:12:21.286Z,3.00
2023-03-28T08:15:08.968Z,3.80
2023-03-28T08:17:36.215Z,3.70
2023-03-28T08:20:08.843Z,2.70
2023-03-28T08:22:56.176Z,3.10
2023-03-28T08:25:47.296Z,3.20
2023-03-28T08:28:18.334Z,3.30
2023-03-28T08:30:46.569Z,3.20
2023-03-28T08:33:14.245Z,3.30
2023-03-28T08:35:44.049Z,3.80
2023-03-28T08:38:18.215Z,3.50
2023-03-28T08:41:09.394Z,3.50
2023-03-28T08:44:18.281Z,4.10
2023-03-28T08:46:46.596Z,3.80
2023-03-28T08:49:16.131Z,3.50
2023-03-28T08:51:52.867Z,3.50
2023-03-28T08:54:21.136Z,3.30
2023-03-28T08:56:53.344Z,4.00
2023-03-28T08:59:30.419Z,3.80
2023-03-28T09:02:26.399Z,3.00
2023-03-28T09:04:56.567Z,3.40
2023-03-28T09:07:34.756Z,4.10
2023-03-28T09:10:18.634Z,3.40
2023-03-28T09:13:49.741Z,3.40
2023-03-28T09:16:35.852Z,3.90
2023-03-28T09:19:21.448Z,3.40
2023-03-28T09:22:35.797Z,3.50
2023-03-28T09:25:37.858Z,3.90
2023-03-28T09:28:31.216Z,3.30
2023-03-28T09:31:01.621Z,3.60
2023-03-28T09:33:37.615Z,3.30
2023-03-28T09:36:13.031Z,3.70
2023-03-28T09:38:45.622Z,3.70
2023-03-28T09:41:19.604Z,4.20
2023-03-28T09:43:52.933Z,4.10
2023-03-28T09:46:58.057Z,4.00
2023-03-28T09:49:40.373Z,4.00
2023-03-28T09:53:45.500Z,3.70
2023-03-28T09:56:34.618Z,4.40
2023-03-28T09:59:26.218Z,4.00
2023-03-28T10:01:57.946Z,5.60
2023-03-28T10:04:29.933Z,5.30
2023-03-28T10:07:42.853Z,5.20
2023-03-28T10:10:31.270Z,4.40
2023-03-28T10:13:16.647Z,4.30
2023-03-28T10:15:51.068Z,4.30
2023-03-28T10:18:47.456Z,4.60
2023-03-28T10:21:25.104Z,5.20
2023-03-28T10:24:04.242Z,4.80
2023-03-28T10:26:32.931Z,4.60
2023-03-28T10:29:05.515Z,5.00
2023-03-28T10:31:34.680Z,4.80
2023-03-28T10:34:35.252Z,4.30
2023-03-28T10:40:19.493Z,4.90
2023-03-28T10:43:23.082Z,3.80
2023-03-28T10:46:23.818Z,4.80
2023-03-28T10:49:30.046Z,3.60
2023-03-28T10:52:38.138Z,3.80
2023-03-28T10:55:21.205Z,4.00
2023-03-28T10:58:53.701Z,3.40
2023-03-28T11:01:48.394Z,3.70
2023-03-28T11:04:39.149Z,3.50
2023-03-28T11:07:49.758Z,3.10
2023-03-28T11:10:30.793Z,3.40
2023-03-28T11:13:43.243Z,3.20
2023-03-28T11:17:25.615Z,3.00
2023-03-28T11:20:33.939Z,4.10
2023-03-28T11:23:38.296Z,4.70
2023-03-28T11:27:49.415Z,2.10
2023-03-28T11:30:37.568Z,3.60
2023-03-28T11:33:48.658Z,3.80
2023-03-28T11:36:43.920Z,3.80
2023-03-28T11:42:42.933Z,5.10
2023-03-28T11:45:11.009Z,4.90
2023-03-28T11:47:41.464Z,4.40
2023-03-28T11:50:18.402Z,3.40
2023-03-28T11:53:22.487Z,3.10
2023-03-28T11:56:32.717Z,4.00
2023-03-28T11:59:30.587Z,4.70
2023-03-28T12:02:04.986Z,4.60
2023-03-28T12:04:47.764Z,3.80
2023-03-28T12:07:38.508Z,3.40
2023-03-28T12:10:28.914Z,3.60
2023-03-28T12:13:22.544Z,3.90
2023-03-28T12:16:01.976Z,4.60
2023-03-28T12:18:36.573Z,5.80
2023-03-28T12:21:14.385Z,5.20
2023-03-28T12:24:16.127Z,5.30
2023-03-28T12:27:08.938Z,4.60
2023-03-28T12:29:51.096Z,4.70
2023-03-28T12:32:43.177Z,4.50
2023-03-28T12:35:32.314Z,4.80
2023-03-28T12:38:14.641Z,4.50
2023-03-28T12:41:05.176Z,4.70
2023-03-28T12:43:45.603Z,4.70
2023-03-28T12:46:19.057Z,5.40
2023-03-28T12:48:55.890Z,5.90
2023-03-28T12:51:47.973Z,6.10
2023-03-28T12:54:16.877Z,6.00
2023-03-28T12:56:58.532Z,6.70
2023-03-28T13:00:06.261Z,7.30
2023-03-28T13:03:05.939Z,6.40
2023-03-28T13:05:39.431Z,5.80
2023-03-28T13:08:30.225Z,6.10
2023-03-28T13:11:28.133Z,7.10
2023-03-28T13:13:59.043Z,5.60
2023-03-28T13:16:46.567Z,6.70
2023-03-28T13:19:16.448Z,5.80
2023-03-28T13:21:47.421Z,6.50
2023-03-28T13:24:35.854Z,6.10
2023-03-28T13:27:12.356Z,6.20
2023-03-28T13:29:50.442Z,11.40
2023-03-28T13:32:23.095Z,6.80
2023-03-28T13:34:56.525Z,13.20
2023-03-28T13:37:38.109Z,9.00
2023-03-28T13:40:39.753Z,7.00
2023-03-28T13:43:24.439Z,7.30
2023-03-28T13:45:54.857Z,8.80
2023-03-28T13:48:25.097Z,6.70
2023-03-28T13:50:53.095Z,7.20
2023-03-28T13:53:37.456Z,8.40
2023-03-28T13:56:30.117Z,7.50
2023-03-28T13:59:01.492Z,7.20
2023-03-28T14:01:42.096Z,9.80
2023-03-28T14:04:12.160Z,7.50
2023-03-28T14:06:40.560Z,8.20
2023-03-28T14:09:21.164Z,7.80
2023-03-28T14:11:48.755Z,8.50
2023-03-28T14:14:27.195Z,8.80
2023-03-28T14:16:57.717Z,8.50
2023-03-28T14:19:33.595Z,8.30
2023-03-28T14:22:21.516Z,8.20
2023-03-28T14:24:51.391Z,8.10
2023-03-28T14:27:38.484Z,9.10
2023-03-28T14:30:31.885Z,8.60
2023-03-28T14:33:08.417Z,8.40
2023-03-28T14:35:36.607Z,10.70
2023-03-28T14:38:05.717Z,9.90
2023-03-28T14:41:28.709Z,11.80
2023-03-28T14:43:57.438Z,11.60
2023-03-28T14:46:29.697Z,11.40
2023-03-28T14:48:59.192Z,11.10
2023-03-28T14:51:27.705Z,10.20
2023-03-28T14:53:56.638Z,10.10
2023-03-28T14:56:26.919Z,10.30
2023-03-28T14:58:59.745Z,10.10
2023-03-28T15:01:27.652Z,9.60
2023-03-28T15:04:07.834Z,12.00
2023-03-28T15:06:38.817Z,11.10
2023-03-28T15:09:29.821Z,13.10
2023-03-28T15:12:07.717Z,9.90
2023-03-28T15:14:42.037Z,11.20
2023-03-28T15:17:27.610Z,12.20
2023-03-28T15:19:55.515Z,18.10
2023-03-28T15:22:27.484Z,11.40
2023-03-28T15:24:58.966Z,10.70
2023-03-28T15:27:31.165Z,11.80
2023-03-28T15:29:59.601Z,12.10
2023-03-28T15:32:30.411Z,14.90
2023-03-28T15:35:04.158Z,10.60
2023-03-28T15:37:43.247Z,8.40
2023-03-28T15:40:37.608Z,8.80
2023-03-28T15:43:04.661Z,12.60
2023-03-28T15:45:42.275Z,12.50
2023-03-28T15:48:14.374Z,10.00
2023-03-28T15:50:44.742Z,9.10
2023-03-28T15:53:14.136Z,9.70
2023-03-28T15:55:42.103Z,9.50
2023-03-28T15:58:15.463Z,11.20
2023-03-28T16:00:49.633Z,11.10
2023-03-28T16:03:22.578Z,9.00
2023-03-28T16:05:59.685Z,9.90
2023-03-28T16:08:35.190Z,9.50
2023-03-28T16:11:04.595Z,8.00
2023-03-28T16:13:35.604Z,7.60
2023-03-28T16:16:34.502Z,9.30
2023-03-28T16:19:30.077Z,10.60
2023-03-28T16:22:04.599Z,10.80
2023-03-28T16:24:34.232Z,9.30
2023-03-28T16:27:01.674Z,9.10
2023-03-28T16:29:30.443Z,9.20
2023-03-28T16:32:02.937Z,9.90
2023-03-28T16:34:30.749Z,9.60
2023-03-28T16:36:57.875Z,9.10
2023-03-28T16:39:27.132Z,8.00
2023-03-28T16:41:54.129Z,8.00
2023-03-28T16:44:21.803Z,5.60
2023-03-28T16:46:50.820Z,7.90
2023-03-28T16:49:19.285Z,5.60
2023-03-28T16:51:46.752Z,5.00
2023-03-28T16:54:13.626Z,3.10
2023-03-28T16:56:42.123Z,2.60
2023-03-28T16:59:09.854Z,2.90
2023-03-28T17:01:40.816Z,3.20
2023-03-28T17:04:08.550Z,3.00
2023-03-28T17:06:35.579Z,3.10
2023-03-28T17:09:04.805Z,3.40
2023-03-28T17:11:34.284Z,3.50
2023-03-28T17:14:01.986Z,2.60
2023-03-28T17:16:29.256Z,2.30
2023-03-28T17:18:56.225Z,2.50
2023-03-28T17:21:31.133Z,2.20
2023-03-28T17:24:01.976Z,3.30
2023-03-28T17:26:29.163Z,2.90
2023-03-28T17:29:00.132Z,1.90
2023-03-28T17:31:27.449Z,1.00
2023-03-28T17:33:54.771Z,1.40
2023-03-28T17:36:26.663Z,1.80
2023-03-28T17:38:55.334Z,3.80
2023-03-28T17:41:22.463Z,1.20
2023-03-28T17:43:51.273Z,1.40
2023-03-28T17:46:20.990Z,1.00
2023-03-28T17:48:48.497Z,1.00
2023-03-28T17:51:18.986Z,1.20
2023-03-28T17:53:46.486Z,0.90
2023-03-28T17:56:20.982Z,1.00
2023-03-28T17:58:48.282Z,0.80
2023-03-28T18:01:16.674Z,0.90
2023-03-28T18:03:45.458Z,1.00
2023-03-28T18:06:56.272Z,1.40
2023-03-28T18:09:26.793Z,1.10
2023-03-28T18:12:08.474Z,5.60
2023-03-28T18:14:38.281Z,2.50
2023-03-28T18:17:05.663Z,2.70
2023-03-28T18:19:33.243Z,4.30
2023-03-28T18:22:02.708Z,5.50
2023-03-28T18:24:40.043Z,5.80
2023-03-28T18:27:11.319Z,6.60
2023-03-28T18:29:39.673Z,6.30
2023-03-28T18:32:08.584Z,7.00
2023-03-28T18:34:36.166Z,6.40
2023-03-28T18:37:05.191Z,6.50
2023-03-28T18:39:32.968Z,6.50
2023-03-28T18:42:11.887Z,7.10
2023-03-28T18:44:40.527Z,7.10
2023-03-28T18:47:07.458Z,7.60
2023-03-28T18:49:37.588Z,7.00
2023-03-28T18:52:04.549Z,7.00
2023-03-28T18:54:33.623Z,7.30
2023-03-28T18:57:01.245Z,6.30
2023-03-28T18:59:34.749Z,6.50
2023-03-28T19:02:04.400Z,5.20
2023-03-28T19:04:31.882Z,5.30
2023-03-28T19:06:58.919Z,5.00
2023-03-28T19:09:25.839Z,4.50
2023-03-28T19:11:54.434Z,3.50
2023-03-28T19:14:26.500Z,4.60
2023-03-28T19:16:55.273Z,4.90
2023-03-28T19:19:23.801Z,4.40
2023-03-28T19:21:54.603Z,4.30
2023-03-28T19:24:22.972Z,4.90
2023-03-28T19:26:50.480Z,5.50
2023-03-28T19:29:19.889Z,4.80
2023-03-28T19:31:47.020Z,6.70
2023-03-28T19:34:15.578Z,4.50
2023-03-28T19:36:43.327Z,4.20
2023-03-28T19:39:10.509Z,3.20
2023-03-28T19:41:38.065Z,3.80
2023-03-28T19:44:05.129Z,4.50
2023-03-28T19:46:34.685Z,4.30
2023-03-28T19:49:05.918Z,5.40
2023-03-28T19:51:33.840Z,5.90
2023-03-28T19:54:01.554Z,5.30
2023-03-28T19:56:28.829Z,3.80
2023-03-28T19:58:56.395Z,3.80
2023-03-28T20:01:23.352Z,5.30
2023-03-28T20:03:55.998Z,6.30
2023-03-28T20:06:27.179Z,8.10
2023-03-28T20:08:59.195Z,9.20
2023-03-28T20:11:32.878Z,9.00
2023-03-28T20:14:05.889Z,5.50
2023-03-28T20:16:42.147Z,4.20
2023-03-28T20:19:11.268Z,4.40
2023-03-28T20:21:41.447Z,4.10
2023-03-28T20:24:21.666Z,4.40
2023-03-28T20:27:35.305Z,4.80
2023-03-28T20:30:05.803Z,5.60
2023-03-28T20:32:57.293Z,5.60
2023-03-28T20:35:41.291Z,5.50
2023-03-28T20:38:15.017Z,5.40
2023-03-28T20:40:45.467Z,4.40
2023-03-28T20:43:19.774Z,4.40
2023-03-28T20:45:53.464Z,3.00
2023-03-28T20:48:36.632Z,1.60
2023-03-28T20:51:15.581Z,1.80
2023-03-28T20:53:49.817Z,2.30
2023-03-28T20:56:21.433Z,1.90
2023-03-28T20:58:57.074Z,1.40
2023-03-28T21:01:39.989Z,1.30
2023-03-28T21:04:31.312Z,1.20
2023-03-28T21:07:03.638Z,1.20
2023-03-28T21:09:38.572Z,1.60
2023-03-28T21:12:14.208Z,1.60
2023-03-28T21:14:43.038Z,2.10
2023-03-28T21:17:17.497Z,2.10
2023-03-28T21:22:16.837Z,2.50
2023-03-28T21:24:45.362Z,2.70
2023-03-28T21:27:18.957Z,2.90
2023-03-28T21:29:46.285Z,2.70
2023-03-28T21:32:14.076Z,2.70
2023-03-28T21:34:44.511Z,2.60
2023-03-28T21:37:11.938Z,2.10
2023-03-28T21:39:39.197Z,3.10
2023-03-28T21:42:07.425Z,7.00
2023-03-28T21:44:34.813Z,11.00
2023-03-28T21:47:01.974Z,5.90
2023-03-28T21:49:30.114Z,4.80
2023-03-28T21:51:57.160Z,3.80
2023-03-28T21:54:25.852Z,2.90
2023-03-28T21:56:55.520Z,2.90
2023-03-28T21:59:23.588Z,2.30
2023-03-28T22:01:52.945Z,2.10
2023-03-28T22:04:20.176Z,2.50
2023-03-28T22:06:47.453Z,2.60
2023-03-28T22:09:14.523Z,4.30
2023-03-28T22:11:43.218Z,7.10
2023-03-28T22:14:14.262Z,11.30
2023-03-28T22:16:43.340Z,10.10
2023-03-28T22:19:14.084Z,7.00
2023-03-28T22:21:44.209Z,5.70
2023-03-28T22:24:12.448Z,6.50
2023-03-28T22:26:45.759Z,5.00
2023-03-28T22:29:12.897Z,5.80
2023-03-28T22:31:41.253Z,8.80
2023-03-28T22:34:11.616Z,7.60
2023-03-28T22:36:38.573Z,3.40
2023-03-28T22:39:11.743Z,2.60
2023-03-28T22:41:44.532Z,3.60
2023-03-28T22:44:12.591Z,4.20
2023-03-28T22:46:42.270Z,2.10
2023-03-28T22:49:09.779Z,2.90
2023-03-28T22:51:46.320Z,2.00
2023-03-28T22:57:06.642Z,3.00
2023-03-28T22:59:35.708Z,2.20
2023-03-28T23:02:02.901Z,2.90
2023-03-28T23:04:32.645Z,2.90
2023-03-28T23:07:00.140Z,4.50
2023-03-28T23:09:28.003Z,3.60
2023-03-28T23:12:01.922Z,5.70
2023-03-28T23:14:30.533Z,4.80
2023-03-28T23:17:01.656Z,5.30
2023-03-28T23:19:31.515Z,4.20
2023-03-28T23:21:58.837Z,4.00
2023-03-28T23:24:27.271Z,4.20
2023-03-28T23:26:55.130Z,3.50
2023-03-28T23:29:22.840Z,3.50
2023-03-28T23:31:50.273Z,4.10
2023-03-28T23:34:17.213Z,3.50
2023-03-28T23:36:45.619Z,3.40
2023-03-28T23:39:12.959Z,3.50
2023-03-28T23:41:40.407Z,4.00
2023-03-28T23:44:07.479Z,3.90
2023-03-28T23:46:35.239Z,4.00
2023-03-28T23:49:06.468Z,3.40
2023-03-28T23:51:35.159Z,2.10
2023-03-28T23:54:04.742Z,2.10
2023-03-28T23:56:34.043Z,1.60
2023-03-28T23:59:01.177Z,1.70
